Time;durP1;ratioP1;P1;durP2;ratioP2;P2;SDS_P1;SDS_P2;PMS_P1;PMS_P2;Temp;Humidity;BMP_temperature;BMP_pressure;BME280_temperature;BME280_humidity;BME280_pressure;Samples;Min_cycle;Max_cycle;Signal;HPM_P1;HPM_P2
2021/03/25 00:02:42;;;;;;;106.87;49.10;;;;;;;4.12;76.55;99614.80;4379911;80;21322;-92
2021/03/25 00:08:44;;;;;;;105.35;49.65;;;;;;;4.14;76.78;99609.06;4379717;80;21167;-89
2021/03/25 00:14:45;;;;;;;112.08;50.25;;;;;;;4.15;76.74;99609.33;4380739;80;21222;-90
2021/03/25 00:20:57;;;;;;;105.22;47.05;;;;;;;4.06;76.49;99615.27;4393538;80;21751;-89
2021/03/25 00:26:59;;;;;;;105.58;48.10;;;;;;;4.08;76.84;99599.50;4379475;80;21210;-90
2021/03/25 00:33:03;;;;;;;119.53;52.55;;;;;;;4.15;76.96;99595.20;4377696;80;21233;-89
2021/03/25 00:39:08;;;;;;;120.57;52.90;;;;;;;4.17;76.95;99598.39;4378291;80;21380;-90
2021/03/25 00:45:16;;;;;;;112.08;50.75;;;;;;;4.07;76.76;99595.98;4378801;80;21182;-89
2021/03/25 00:51:17;;;;;;;118.33;53.10;;;;;;;3.99;77.09;99600.05;4378000;80;21548;-90
2021/03/25 00:57:19;;;;;;;109.78;49.83;;;;;;;4.01;77.31;99595.13;4381864;80;21210;-89
2021/03/25 01:03:25;;;;;;;109.00;48.13;;;;;;;4.06;77.32;99589.53;4376051;80;21147;-89
2021/03/25 01:09:29;;;;;;;106.58;48.98;;;;;;;4.06;77.11;99592.23;4369288;81;21836;-91
2021/03/25 01:15:31;;;;;;;107.10;50.10;;;;;;;4.01;77.28;99580.23;4339984;81;21155;-91
2021/03/25 01:21:33;;;;;;;109.65;49.13;;;;;;;4.01;77.33;99578.88;4384818;80;21433;-91
2021/03/25 01:27:35;;;;;;;103.92;48.15;;;;;;;4.01;77.43;99578.30;4378527;80;21201;-91
2021/03/25 01:33:37;;;;;;;123.28;56.88;;;;;;;4.01;77.41;99572.88;4384140;80;21165;-91
2021/03/25 01:39:39;;;;;;;114.62;54.83;;;;;;;3.95;77.40;99563.31;4401069;80;21141;-91
2021/03/25 01:46:24;;;;;;;120.50;53.20;;;;;;;3.92;77.55;99555.83;4395224;80;21166;-92
2021/03/25 01:52:34;;;;;;;117.62;54.60;;;;;;;3.92;77.56;99554.48;4395370;80;21225;-91
2021/03/25 01:59:42;;;;;;;117.65;53.95;;;;;;;3.99;77.56;99544.53;4499992;77;26453;-88
2021/03/25 02:06:08;;;;;;;118.70;55.28;;;;;;;3.91;77.63;99544.77;4378714;79;22523;-88
2021/03/25 02:12:42;;;;;;;119.30;56.23;;;;;;;3.89;77.61;99539.41;4391012;79;21216;-88
2021/03/25 02:19:30;;;;;;;122.53;53.87;;;;;;;3.83;77.70;99540.68;4388773;79;21134;-89
2021/03/25 02:32:35;;;;;;;136.55;61.25;;;;;;;3.67;77.66;99530.06;4399372;79;21164;-88
2021/03/25 02:59:23;;;;;;;141.88;62.33;;;;;;;3.55;78.25;99529.34;4465090;79;22990;-88
2021/03/25 03:05:47;;;;;;;133.20;60.28;;;;;;;3.50;78.21;99534.91;4349621;80;21169;-89
2021/03/25 03:12:05;;;;;;;133.40;58.80;;;;;;;3.54;78.32;99527.73;4372518;81;21189;-88
2021/03/25 03:18:40;;;;;;;138.10;63.40;;;;;;;3.42;78.04;99537.58;4363708;80;21241;-89
2021/03/25 03:25:20;;;;;;;134.72;62.95;;;;;;;3.43;78.43;99533.78;4589931;76;26482;-88
2021/03/25 03:45:01;;;;;;;145.07;65.95;;;;;;;3.27;78.69;99532.61;4179061;83;21414;-89
2021/03/25 03:51:35;;;;;;;135.30;63.10;;;;;;;3.18;78.74;99524.45;4275653;80;61857;-87
2021/03/25 03:58:20;;;;;;;137.62;63.78;;;;;;;3.29;79.02;99527.11;4470157;77;22711;-88
2021/03/25 04:04:30;;;;;;;121.00;55.23;;;;;;;3.18;78.94;99529.32;4395942;79;21170;-88
2021/03/25 04:11:02;;;;;;;132.75;62.90;;;;;;;3.12;79.20;99527.06;4394073;79;21087;-89
2021/03/25 04:17:08;;;;;;;107.43;49.35;;;;;;;3.06;79.39;99521.01;4365969;80;21177;-89
2021/03/25 04:23:42;;;;;;;119.13;53.78;;;;;;;3.10;79.36;99527.95;4345419;80;21510;-88
2021/03/25 04:42:51;;;;;;;130.25;57.67;;;;;;;3.14;79.59;99534.31;4035792;87;20213;-88
2021/03/25 04:55:59;;;;;;;122.15;59.33;;;;;;;3.02;79.72;99534.13;3876671;90;21790;-88
2021/03/25 05:09:29;;;;;;;129.85;60.00;;;;;;;3.01;80.02;99544.13;3873210;90;21930;-88
2021/03/25 05:15:37;;;;;;;128.32;60.58;;;;;;;3.03;79.97;99550.58;3891621;87;21402;-88
2021/03/25 05:22:33;;;;;;;122.90;58.85;;;;;;;3.03;79.96;99551.39;4035031;86;21181;-89
2021/03/25 05:28:51;;;;;;;125.20;59.33;;;;;;;3.12;80.04;99554.92;4093866;84;100558;-88
2021/03/25 05:35:12;;;;;;;131.75;58.90;;;;;;;3.23;80.17;99549.47;4199729;83;21211;-90
2021/03/25 05:42:19;;;;;;;111.20;54.18;;;;;;;3.32;80.37;99563.59;4203652;83;21706;-89
2021/03/25 05:56:02;;;;;;;114.92;57.00;;;;;;;3.42;80.53;99558.68;4489040;77;23409;-91
2021/03/25 06:02:08;;;;;;;120.17;58.25;;;;;;;3.48;80.55;99558.77;4281793;81;21177;-89
2021/03/25 06:08:19;;;;;;;;;;;;;;;3.61;80.38;99570.05;4291961;81;21174;-90
2021/03/25 06:14:54;;;;;;;121.37;59.30;;;;;;;3.61;80.66;99574.64;4277024;81;20611;-90
2021/03/25 06:21:10;;;;;;;121.35;60.75;;;;;;;3.71;80.34;99568.38;4336448;80;21197;-93
2021/03/25 06:27:53;;;;;;;120.72;59.23;;;;;;;3.82;80.33;99571.59;4349062;80;21593;-91
2021/03/25 06:34:15;;;;;;;121.35;57.35;;;;;;;3.95;80.35;99570.64;4342494;80;21388;-90
2021/03/25 06:40:22;;;;;;;118.93;54.80;;;;;;;4.02;80.14;99569.08;4273126;81;21173;-90
2021/03/25 06:46:36;;;;;;;123.25;58.25;;;;;;;4.15;80.07;99574.87;4328186;80;21169;-90
2021/03/25 06:52:38;;;;;;;108.00;52.65;;;;;;;4.33;80.01;99587.33;4290892;81;21165;-90
2021/03/25 06:58:48;;;;;;;103.67;51.58;;;;;;;4.42;79.67;99588.66;4439815;78;21188;-90
2021/03/25 07:04:53;;;;;;;103.27;49.60;;;;;;;4.50;79.53;99595.45;4435493;78;21199;-90
2021/03/25 07:11:06;;;;;;;97.65;49.50;;;;;;;4.59;79.46;99592.71;4377637;80;21672;-90
2021/03/25 07:17:15;;;;;;;91.00;46.88;;;;;;;4.62;79.20;99588.80;4310218;81;21255;-90
2021/03/25 07:23:17;;;;;;;81.97;42.35;;;;;;;4.70;79.12;99591.26;4319319;81;21315;-90
2021/03/25 07:29:24;;;;;;;88.15;44.15;;;;;;;4.87;79.02;99593.16;4310421;81;21184;-91
2021/03/25 07:35:38;;;;;;;;;;;;;;;5.01;78.82;99597.28;4318813;81;21192;-92
2021/03/25 07:41:45;;;;;;;77.97;40.58;;;;;;;5.11;78.44;99598.27;4426111;78;20201;-90
2021/03/25 07:47:49;;;;;;;83.47;42.55;;;;;;;5.23;78.46;99601.09;4316378;81;22411;-90
2021/03/25 07:54:11;;;;;;;80.03;39.85;;;;;;;5.34;78.12;99598.84;4300703;81;21153;-90
2021/03/25 08:00:33;;;;;;;73.15;37.88;;;;;;;5.39;77.95;99606.78;4298105;81;21482;-92
2021/03/25 08:06:39;;;;;;;69.82;35.70;;;;;;;5.44;77.90;99610.13;4282033;81;21334;-93
2021/03/25 08:12:42;;;;;;;81.22;39.83;;;;;;;5.46;77.95;99613.32;4210859;81;27483;-92
2021/03/25 08:18:55;;;;;;;67.50;34.53;;;;;;;5.52;77.06;99603.05;4123991;85;21757;-89
2021/03/25 08:25:23;;;;;;;72.03;34.27;;;;;;;5.48;75.34;99593.98;4127381;85;21749;-89
2021/03/25 08:31:36;;;;;;;64.37;32.63;;;;;;;5.61;74.72;99591.03;4164564;84;21224;-91
2021/03/25 08:38:29;;;;;;;66.02;33.42;;;;;;;5.73;74.80;99593.83;4137589;85;21354;-91
2021/03/25 08:44:45;;;;;;;55.92;30.50;;;;;;;5.99;75.08;99600.50;4120489;85;21672;-91
2021/03/25 08:51:13;;;;;;;57.08;27.70;;;;;;;6.06;73.74;99605.64;4124099;85;21330;-90
2021/03/25 08:57:25;;;;;;;54.05;26.73;;;;;;;6.31;73.49;99606.61;4169077;84;21227;-91
2021/03/25 09:03:47;;;;;;;48.80;25.17;;;;;;;6.44;72.76;99598.72;4123668;84;21130;-91
2021/03/25 09:09:54;;;;;;;52.23;25.95;;;;;;;6.61;72.21;99598.56;4126348;85;21718;-91
2021/03/25 09:16:01;;;;;;;52.70;27.05;;;;;;;6.77;68.96;99598.17;4129089;85;21197;-90
2021/03/25 09:22:03;;;;;;;;;;;;;;;6.88;67.90;99598.55;4129633;85;21370;-90
2021/03/25 09:28:19;;;;;;;49.67;26.70;;;;;;;7.11;69.56;99588.28;4133756;85;20233;-90
2021/03/25 09:34:28;;;;;;;50.40;28.35;;;;;;;7.58;69.16;99584.61;4107636;84;27378;-92
2021/03/25 09:40:48;;;;;;;49.05;26.37;;;;;;;7.96;66.36;99578.20;4099459;85;21211;-91
2021/03/25 09:47:02;;;;;;;47.85;26.82;;;;;;;7.87;65.52;99575.61;4072396;85;21249;-91
2021/03/25 09:53:16;;;;;;;53.73;28.57;;;;;;;7.77;62.93;99576.07;4109366;85;21235;-90
2021/03/25 09:59:59;;;;;;;55.65;31.17;;;;;;;8.11;65.90;99578.88;4103695;85;21372;-91
2021/03/25 10:06:01;;;;;;;56.92;32.15;;;;;;;8.12;61.96;99573.63;4098852;85;21289;-93
2021/03/25 10:12:03;;;;;;;55.63;30.00;;;;;;;8.08;63.40;99573.30;4049924;86;21181;-91
2021/03/25 10:18:17;;;;;;;51.10;29.85;;;;;;;8.10;61.76;99569.67;4024236;87;31198;-90
2021/03/25 10:24:30;;;;;;;54.93;30.82;;;;;;;8.35;63.02;99565.77;3967666;88;21777;-93
2021/03/25 10:30:36;;;;;;;52.13;28.60;;;;;;;8.78;61.69;99557.61;3964296;88;21403;-91
2021/03/25 10:37:08;;;;;;;46.77;28.10;;;;;;;9.02;62.62;99558.85;3964983;88;21973;-91
2021/03/25 10:43:21;;;;;;;50.67;29.23;;;;;;;9.23;62.05;99561.55;4086529;85;21185;-91
2021/03/25 10:49:29;;;;;;;62.35;30.52;;;;;;;9.26;61.09;99560.84;4085568;85;21620;-91
2021/03/25 10:55:46;;;;;;;56.70;31.80;;;;;;;9.23;58.36;99556.08;4029498;87;21253;-91
2021/03/25 11:01:58;;;;;;;48.77;27.43;;;;;;;9.39;59.11;99552.78;4028353;87;21226;-91
2021/03/25 11:08:03;;;;;;;52.45;29.65;;;;;;;9.63;58.54;99549.63;3964181;88;21308;-91
2021/03/25 11:14:28;;;;;;;62.10;32.75;;;;;;;9.66;58.96;99547.55;3961333;88;21241;-94
2021/03/25 11:20:30;;;;;;;53.23;30.82;;;;;;;9.94;57.75;99542.16;4006638;87;33213;-92
2021/03/25 11:26:32;;;;;;;55.10;30.40;;;;;;;9.85;58.10;99541.53;4062345;86;21575;-91
2021/03/25 11:32:42;;;;;;;54.27;31.30;;;;;;;9.82;57.79;99531.91;4043265;86;21216;-92
2021/03/25 11:38:47;;;;;;;54.63;31.82;;;;;;;10.35;58.00;99525.06;4116033;85;21732;-91
2021/03/25 11:44:49;;;;;;;55.28;32.38;;;;;;;10.62;56.77;99517.77;4125480;84;21201;-91
2021/03/25 11:50:52;;;;;;;56.40;32.50;;;;;;;10.66;55.17;99521.37;4121954;85;21219;-92
2021/03/25 11:56:59;;;;;;;53.60;32.03;;;;;;;10.43;55.28;99513.70;4136030;85;21149;-92
2021/03/25 12:03:16;;;;;;;52.78;31.85;;;;;;;10.37;55.24;99519.23;4119548;85;21204;-91
2021/03/25 12:09:20;;;;;;;54.77;31.37;;;;;;;10.31;54.59;99515.20;4129857;85;21155;-92
2021/03/25 12:15:22;;;;;;;51.95;30.05;;;;;;;10.13;54.31;99506.63;4127945;86;21169;-91
2021/03/25 12:21:24;;;;;;;52.55;30.90;;;;;;;10.71;53.36;99507.40;4137789;85;21341;-92
2021/03/25 12:27:29;;;;;;;59.80;34.50;;;;;;;10.88;53.99;99499.48;4133878;86;21244;-93
2021/03/25 12:33:36;;;;;;;57.58;34.67;;;;;;;10.93;53.65;99498.42;4119816;81;32585;-91
2021/03/25 12:39:37;;;;;;;52.65;32.33;;;;;;;10.81;53.56;99495.83;4113145;82;30235;-93
2021/03/25 12:45:43;;;;;;;55.65;31.90;;;;;;;10.85;53.92;99481.04;4140554;85;21589;-91
2021/03/25 12:51:45;;;;;;;57.25;34.33;;;;;;;10.94;53.58;99482.98;4137810;85;21747;-91
2021/03/25 12:57:50;;;;;;;56.40;34.27;;;;;;;11.22;52.66;99477.74;4158895;84;21255;-92
2021/03/25 13:03:53;;;;;;;50.17;30.82;;;;;;;11.41;52.38;99466.13;4066908;85;21788;-92
2021/03/25 13:09:55;;;;;;;55.78;32.80;;;;;;;11.37;52.06;99455.66;4156520;84;21280;-92
2021/03/25 13:15:57;;;;;;;53.52;34.15;;;;;;;11.41;52.04;99457.09;4078449;85;21574;-93
2021/03/25 13:21:58;;;;;;;52.13;31.62;;;;;;;11.44;50.79;99458.53;4145431;85;21202;-91
2021/03/25 13:28:00;;;;;;;67.97;39.55;;;;;;;11.53;49.50;99448.66;3960018;84;47680;-91
2021/03/25 13:34:02;;;;;;;56.15;32.85;;;;;;;11.01;48.40;99445.30;4077592;85;21653;-90
2021/03/25 13:40:07;;;;;;;65.32;37.03;;;;;;;11.12;49.48;99435.31;4069106;85;21190;-91
2021/03/25 13:46:09;;;;;;;63.02;35.38;;;;;;;10.98;46.10;99435.88;4083363;85;21533;-90
2021/03/25 13:52:11;;;;;;;56.08;33.42;;;;;;;10.36;47.61;99430.08;4078030;85;21246;-91
2021/03/25 13:58:17;;;;;;;58.20;34.55;;;;;;;10.24;48.28;99427.52;4060541;86;21227;-92
2021/03/25 14:04:19;;;;;;;58.23;33.00;;;;;;;10.28;49.13;99429.73;4069276;86;21355;-92
2021/03/25 14:10:23;;;;;;;51.68;31.37;;;;;;;10.56;49.19;99420.10;4056122;86;21365;-92
2021/03/25 14:16:25;;;;;;;60.33;35.55;;;;;;;10.83;49.09;99408.63;4121864;83;34995;-92
2021/03/25 14:22:27;;;;;;;56.53;34.30;;;;;;;10.77;48.69;99411.47;4166270;84;21673;-92
2021/03/25 14:28:29;;;;;;;64.22;36.63;;;;;;;10.63;48.87;99407.89;4168259;84;21232;-93
2021/03/25 14:34:31;;;;;;;60.28;37.35;;;;;;;10.80;49.17;99396.47;4167507;84;21240;-91
2021/03/25 14:40:34;;;;;;;62.73;37.67;;;;;;;10.76;48.69;99396.97;4164289;84;21192;-91
2021/03/25 14:46:36;;;;;;;59.40;35.45;;;;;;;10.62;47.33;99399.47;4166771;84;21724;-92
2021/03/25 14:52:38;;;;;;;61.75;36.75;;;;;;;10.55;48.90;99391.73;4165755;84;21184;-92
2021/03/25 14:58:39;;;;;;;56.92;34.38;;;;;;;10.47;48.44;99390.81;4143627;84;31938;-91
2021/03/25 15:04:41;;;;;;;61.23;37.25;;;;;;;10.45;48.78;99389.58;4064468;86;21257;-92
2021/03/25 15:10:45;;;;;;;62.60;35.17;;;;;;;10.31;49.04;99388.76;4148439;84;21385;-91
2021/03/25 15:16:47;;;;;;;61.98;35.05;;;;;;;10.39;48.78;99386.37;4155717;84;21268;-92
2021/03/25 15:22:51;;;;;;;51.80;32.08;;;;;;;10.43;49.32;99379.59;4148365;84;21196;-92
2021/03/25 15:28:55;;;;;;;60.65;34.60;;;;;;;10.38;49.42;99377.16;4151786;84;21399;-91
2021/03/25 15:34:57;;;;;;;56.20;32.73;;;;;;;10.36;49.17;99383.56;4092817;85;21382;-91
2021/03/25 15:41:04;;;;;;;65.57;35.35;;;;;;;10.20;49.35;99378.20;4077280;86;21185;-93
2021/03/25 15:47:06;;;;;;;59.63;34.25;;;;;;;10.06;49.38;99379.27;4169976;84;21373;-91
2021/03/25 15:53:08;;;;;;;62.40;35.73;;;;;;;9.88;50.09;99380.84;4170709;84;21254;-92
2021/03/25 15:59:10;;;;;;;61.08;36.23;;;;;;;9.80;49.97;99377.78;4190215;83;21243;-92
2021/03/25 16:05:13;;;;;;;74.55;40.28;;;;;;;9.67;50.02;99383.73;4182534;83;21626;-91
2021/03/25 16:11:16;;;;;;;72.65;38.30;;;;;;;9.57;49.84;99389.19;4186092;83;21212;-93
2021/03/25 16:17:19;;;;;;;177.22;96.12;;;;;;;9.36;50.36;99384.66;4192696;83;21211;-93
2021/03/25 16:23:36;;;;;;;128.75;88.33;;;;;;;9.21;50.60;99387.64;4192877;83;21203;-92
2021/03/25 16:29:37;;;;;;;;;;;;;;;9.11;50.65;99386.03;4193971;83;21233;-92
2021/03/25 16:35:43;;;;;;;86.20;48.80;;;;;;;8.96;51.00;99384.91;4077180;86;20239;-93
2021/03/25 16:41:45;;;;;;;96.10;46.23;;;;;;;8.82;51.10;99385.14;4091742;85;21693;-92
2021/03/25 16:47:49;;;;;;;190.38;75.50;;;;;;;8.66;51.34;99385.73;4140499;84;21755;-92
2021/03/25 16:53:53;;;;;;;94.67;47.55;;;;;;;8.49;51.73;99388.23;4089759;85;21248;-93
2021/03/25 16:59:57;;;;;;;122.28;55.60;;;;;;;8.31;52.11;99382.91;4104683;85;21244;-93
2021/03/25 17:06:02;;;;;;;131.80;66.05;;;;;;;8.12;52.47;99386.84;4152485;84;21194;-92
2021/03/25 17:12:05;;;;;;;143.75;72.37;;;;;;;7.71;53.08;99385.32;4174525;82;33655;-92
2021/03/25 17:18:08;;;;;;;91.82;46.42;;;;;;;7.37;53.61;99390.53;4197907;84;21221;-91
2021/03/25 17:24:13;;;;;;;95.45;44.27;;;;;;;6.78;54.03;99386.74;4187937;84;21700;-93
2021/03/25 17:30:18;;;;;;;87.33;42.70;;;;;;;6.28;54.93;99395.16;4202261;84;21798;-91
2021/03/25 17:36:22;;;;;;;88.80;46.85;;;;;;;5.95;55.48;99399.85;4107224;83;54459;-91
2021/03/25 17:42:24;;;;;;;101.67;47.67;;;;;;;5.63;56.06;99407.37;4111237;85;21145;-91
2021/03/25 17:48:29;;;;;;;91.53;45.50;;;;;;;5.34;56.65;99419.66;4112887;85;21221;-91
2021/03/25 17:54:31;;;;;;;99.00;46.92;;;;;;;5.07;57.08;99426.94;4115768;85;21707;-92
2021/03/25 18:00:38;;;;;;;130.65;60.58;;;;;;;4.74;57.68;99432.21;4102856;85;22085;-91
2021/03/25 18:06:40;;;;;;;118.30;58.85;;;;;;;4.59;58.24;99437.61;4122902;84;21523;-91
2021/03/25 18:12:45;;;;;;;130.47;64.20;;;;;;;4.54;58.81;99438.36;4118590;85;21181;-92
2021/03/25 18:25:03;;;;;;;143.82;70.12;;;;;;;4.17;59.96;99443.94;4583631;76;22580;-89
2021/03/25 18:31:08;;;;;;;141.10;68.57;;;;;;;3.84;60.15;99448.28;4493121;77;21147;-90
2021/03/25 18:37:10;;;;;;;142.50;68.02;;;;;;;3.63;60.48;99447.34;4484764;78;21329;-89
2021/03/25 18:43:15;;;;;;;144.02;71.12;;;;;;;3.51;60.97;99452.58;4487939;78;21726;-90
2021/03/25 18:49:17;;;;;;;140.15;63.68;;;;;;;3.42;61.56;99454.48;4489225;78;21192;-91
2021/03/25 18:55:23;;;;;;;146.37;67.32;;;;;;;3.31;62.06;99453.73;4494386;78;21172;-91
2021/03/25 19:01:26;;;;;;;140.87;62.60;;;;;;;3.23;62.49;99455.90;4494709;78;21688;-90
2021/03/25 19:07:28;;;;;;;139.28;62.48;;;;;;;3.09;62.87;99454.66;4490759;78;21633;-92
2021/03/25 19:13:29;;;;;;;152.45;66.75;;;;;;;3.03;63.12;99466.19;4494329;78;21623;-90
2021/03/25 19:19:31;;;;;;;138.62;65.12;;;;;;;2.87;63.50;99462.86;4486860;78;21180;-90
2021/03/25 19:25:33;;;;;;;157.70;71.30;;;;;;;2.68;63.83;99460.95;4488587;78;21181;-89
2021/03/25 19:31:37;;;;;;;152.45;70.67;;;;;;;2.51;64.16;99473.84;4490981;78;21176;-91
2021/03/25 19:37:39;;;;;;;170.10;72.67;;;;;;;2.39;64.35;99473.63;4490882;78;21188;-91
2021/03/25 19:43:45;;;;;;;155.18;71.75;;;;;;;2.28;64.95;99480.94;4485263;78;21701;-89
2021/03/25 19:49:49;;;;;;;175.20;74.32;;;;;;;2.17;65.37;99480.95;4489747;78;21185;-90
2021/03/25 19:55:51;;;;;;;162.10;73.22;;;;;;;2.05;65.68;99486.12;4491737;78;21212;-90
2021/03/25 20:01:53;;;;;;;201.67;93.65;;;;;;;1.96;66.23;99496.84;4489788;78;21188;-89
2021/03/25 20:07:55;;;;;;;189.62;86.75;;;;;;;1.84;66.36;99499.84;4489181;78;21164;-90
2021/03/25 20:13:59;;;;;;;190.20;84.76;;;;;;;1.73;66.74;99506.03;4378526;78;2070275;-90
2021/03/25 20:20:05;;;;;;;180.97;81.95;;;;;;;1.70;66.96;99505.83;4231775;82;21705;-90
2021/03/25 20:26:08;;;;;;;157.70;72.03;;;;;;;1.58;67.26;99506.38;4231879;82;21231;-91
2021/03/25 20:32:10;;;;;;;185.60;79.67;;;;;;;1.56;67.93;99512.08;4233163;82;21179;-90
2021/03/25 20:38:12;;;;;;;189.95;86.10;;;;;;;1.56;67.75;99513.97;4231473;82;21214;-90
2021/03/25 20:44:14;;;;;;;231.47;94.15;;;;;;;1.40;68.09;99517.55;4230127;82;21725;-91
2021/03/25 20:50:19;;;;;;;258.93;113.62;;;;;;;1.21;67.95;99533.59;4231686;82;21215;-90
2021/03/25 20:56:20;;;;;;;262.90;110.03;;;;;;;0.91;69.16;99540.38;4232784;82;21291;-90
2021/03/25 21:02:22;;;;;;;310.73;126.92;;;;;;;0.79;69.18;99533.34;4230414;82;21203;-90
2021/03/25 21:08:24;;;;;;;278.02;117.10;;;;;;;0.79;69.18;99533.34;4233413;82;21548;-91
2021/03/25 21:14:26;;;;;;;291.83;126.30;;;;;;;0.88;69.70;99549.06;4231055;82;21217;-91
2021/03/25 21:20:29;;;;;;;286.35;124.47;;;;;;;0.84;69.53;99549.96;4232920;82;21232;-89
2021/03/25 21:26:31;;;;;;;252.82;113.52;;;;;;;0.68;69.76;99551.33;4198805;83;21188;-89
2021/03/25 21:32:33;;;;;;;255.90;110.80;;;;;;;0.45;69.88;99557.13;4108404;85;21710;-89
2021/03/25 21:38:36;;;;;;;254.38;108.30;;;;;;;0.31;70.11;99561.67;4108836;84;21227;-89
2021/03/25 21:44:39;;;;;;;257.53;113.17;;;;;;;0.21;70.73;99556.44;4107385;85;21231;-90
2021/03/25 21:50:42;;;;;;;278.97;115.83;;;;;;;0.20;70.97;99560.23;4163712;83;21212;-90
2021/03/25 21:56:43;;;;;;;244.40;103.93;;;;;;;0.10;70.93;99561.72;4185045;83;21787;-90
2021/03/25 22:02:45;;;;;;;243.80;101.20;;;;;;;0.06;71.42;99563.41;4182805;83;21350;-91
2021/03/25 22:08:47;;;;;;;220.77;93.70;;;;;;;-0.02;71.60;99565.42;4183634;83;21229;-90
2021/03/25 22:14:49;;;;;;;222.77;97.07;;;;;;;-0.13;71.54;99558.05;4182940;82;21351;-90
2021/03/25 22:20:51;;;;;;;213.83;91.80;;;;;;;-0.25;71.87;99561.70;4035956;86;21685;-90
2021/03/25 22:26:54;;;;;;;218.73;95.13;;;;;;;-0.30;72.21;99569.83;4067424;86;21246;-89
2021/03/25 22:32:56;;;;;;;234.77;103.60;;;;;;;-0.32;72.30;99569.88;4063231;86;22378;-89
2021/03/25 22:38:57;;;;;;;235.93;98.23;;;;;;;-0.45;72.60;99570.58;4075036;86;21239;-92
2021/03/25 22:44:59;;;;;;;212.40;92.50;;;;;;;-0.50;72.66;99569.33;4092537;86;21208;-92
2021/03/25 22:51:03;;;;;;;203.13;91.90;;;;;;;-0.40;73.29;99571.87;4091454;86;21205;-91
2021/03/25 22:57:06;;;;;;;203.17;89.47;;;;;;;-0.38;73.06;99574.54;4088946;86;21207;-91
2021/03/25 23:03:22;;;;;;;207.17;90.63;;;;;;;-0.52;73.11;99582.25;4091912;86;21560;-89
2021/03/25 23:09:38;;;;;;;221.77;94.52;;;;;;;-0.67;73.07;99581.89;4096000;85;21637;-90
2021/03/25 23:15:41;;;;;;;210.43;88.40;;;;;;;-0.68;73.74;99578.95;4090812;85;21345;-89
2021/03/25 23:21:48;;;;;;;227.83;92.20;;;;;;;-0.70;73.58;99584.34;4103017;84;21666;-89
2021/03/25 23:28:07;;;;;;;222.90;95.30;;;;;;;-0.72;73.70;99579.25;4176572;83;21114;-89
2021/03/25 23:34:10;;;;;;;215.17;88.83;;;;;;;-0.73;73.96;99579.01;4082221;86;21211;-88
2021/03/25 23:40:17;;;;;;;209.60;91.40;;;;;;;-0.80;74.09;99577.76;4173433;83;21549;-88
2021/03/25 23:46:19;;;;;;;210.43;92.70;;;;;;;-0.90;74.13;99569.27;4104387;85;21200;-89
2021/03/25 23:52:21;;;;;;;229.03;98.00;;;;;;;-1.00;74.31;99569.93;4178364;83;21205;-89
2021/03/25 23:58:29;;;;;;;214.97;94.73;;;;;;;-1.05;74.68;99574.79;4104538;85;21200;-89
